Accueil
METAR-TAF:

METAR-TAF

Aéroports :

Aéroport du Havre-Octeville

Le Havre, France

latitude: 49-31N, longitude: 000-04E, altitude: 100 m

Observation

Le bulletin a été fait il y a 34 minutes, à 13:30 UTC
Vent 10 kt de nord
Température 20°C
Humidité 68%
Pression 1026 hPa
Visibilité 10 km ou plus
pas de nuages en-dessous de 1500 mètres et pas de cumulonimbus.

METAR: LFOH 221330Z AUTO 35010KT CAVOK 20/14 Q1026 NOSIG

Heure: 16:04 (14:04 UTC)

Prévision

Le bulletin a été fait il y a 3 heures et 4 minutes, à 11:00 UTC
Prévision valable du 22 à 12 UTC au 23 à 12 UTC
Vent 6 kt de nord-ouest
Visibilité 10 km ou plus
pas de nuages en-dessous de 1500 mètres et pas de cumulonimbus.

TAF: LFOH 221100Z 2212/2312 31006KT CAVOK

Observations et prévisions météorologiques de plus de 4000 aéroports (messages METAR et TAF).

Les stations disponibles sont représentées par des disques jaunes et rouges sur la carte.

Passer la souris dessus pour voir le nom de la station.

Cliquer dessus pour voir les observations et prévisions météorologiques.

Pour changer de carte: cliquez sur les boutons verts avec une croix noire pour zoomer, sur le bouton vert avec un tiret pour effectuer un zoom arrière, ou sur les flèches vertes pour les cartes adjacentes.


METAR-TAF: